sensor_id;sensor_type;location;lat;lon;timestamp;P1;durP1;ratioP1;P2;durP2;ratioP2
38725;SDS011;24474;48.906;8.808;2024-01-30T00:01:44;6.78;;;4.10;;
38725;SDS011;24474;48.906;8.808;2024-01-30T00:04:10;8.50;;;3.30;;
38725;SDS011;24474;48.906;8.808;2024-01-30T00:06:35;9.98;;;4.80;;
38725;SDS011;24474;48.906;8.808;2024-01-30T00:09:01;8.50;;;4.22;;
38725;SDS011;24474;48.906;8.808;2024-01-30T00:11:26;10.50;;;6.13;;
38725;SDS011;24474;48.906;8.808;2024-01-30T00:13:53;9.88;;;5.82;;
38725;SDS011;24474;48.906;8.808;2024-01-30T00:16:22;11.07;;;6.30;;
38725;SDS011;24474;48.906;8.808;2024-01-30T00:18:49;9.43;;;5.70;;
38725;SDS011;24474;48.906;8.808;2024-01-30T00:21:19;10.80;;;6.05;;
38725;SDS011;24474;48.906;8.808;2024-01-30T00:23:45;10.25;;;6.30;;
38725;SDS011;24474;48.906;8.808;2024-01-30T00:26:11;10.38;;;6.35;;
38725;SDS011;24474;48.906;8.808;2024-01-30T00:28:40;11.75;;;5.68;;
38725;SDS011;24474;48.906;8.808;2024-01-30T00:31:06;11.02;;;5.35;;
38725;SDS011;24474;48.906;8.808;2024-01-30T00:33:32;9.20;;;4.97;;
38725;SDS011;24474;48.906;8.808;2024-01-30T00:35:58;8.18;;;4.57;;
38725;SDS011;24474;48.906;8.808;2024-01-30T00:38:24;7.93;;;4.53;;
38725;SDS011;24474;48.906;8.808;2024-01-30T00:40:49;6.90;;;4.28;;
38725;SDS011;24474;48.906;8.808;2024-01-30T00:43:15;9.13;;;4.35;;
38725;SDS011;24474;48.906;8.808;2024-01-30T00:45:41;7.18;;;4.05;;
38725;SDS011;24474;48.906;8.808;2024-01-30T00:48:08;6.70;;;4.15;;
38725;SDS011;24474;48.906;8.808;2024-01-30T00:50:34;8.63;;;4.15;;
38725;SDS011;24474;48.906;8.808;2024-01-30T00:53:00;7.60;;;4.32;;
38725;SDS011;24474;48.906;8.808;2024-01-30T00:55:25;6.30;;;3.72;;
38725;SDS011;24474;48.906;8.808;2024-01-30T00:57:51;6.72;;;3.83;;
38725;SDS011;24474;48.906;8.808;2024-01-30T01:00:17;7.85;;;4.05;;
38725;SDS011;24474;48.906;8.808;2024-01-30T01:02:43;9.65;;;4.95;;
38725;SDS011;24474;48.906;8.808;2024-01-30T01:05:09;8.43;;;5.05;;
38725;SDS011;24474;48.906;8.808;2024-01-30T01:07:35;7.97;;;4.45;;
38725;SDS011;24474;48.906;8.808;2024-01-30T01:10:01;8.25;;;4.93;;
38725;SDS011;24474;48.906;8.808;2024-01-30T01:12:27;6.63;;;4.18;;
38725;SDS011;24474;48.906;8.808;2024-01-30T01:14:53;7.15;;;4.15;;
38725;SDS011;24474;48.906;8.808;2024-01-30T01:17:18;6.55;;;3.80;;
38725;SDS011;24474;48.906;8.808;2024-01-30T01:19:44;8.85;;;5.38;;
38725;SDS011;24474;48.906;8.808;2024-01-30T01:22:10;9.07;;;5.20;;
38725;SDS011;24474;48.906;8.808;2024-01-30T01:24:36;10.00;;;5.40;;
38725;SDS011;24474;48.906;8.808;2024-01-30T01:27:01;10.70;;;6.20;;
38725;SDS011;24474;48.906;8.808;2024-01-30T01:29:27;11.90;;;6.55;;
38725;SDS011;24474;48.906;8.808;2024-01-30T01:31:57;9.80;;;5.43;;
38725;SDS011;24474;48.906;8.808;2024-01-30T01:34:23;9.27;;;5.25;;
38725;SDS011;24474;48.906;8.808;2024-01-30T01:36:49;8.80;;;5.25;;
38725;SDS011;24474;48.906;8.808;2024-01-30T01:39:15;8.20;;;5.03;;
38725;SDS011;24474;48.906;8.808;2024-01-30T01:41:41;10.02;;;5.78;;
38725;SDS011;24474;48.906;8.808;2024-01-30T01:44:07;11.00;;;5.38;;
38725;SDS011;24474;48.906;8.808;2024-01-30T01:46:33;10.68;;;6.00;;
38725;SDS011;24474;48.906;8.808;2024-01-30T01:49:00;13.27;;;7.25;;
38725;SDS011;24474;48.906;8.808;2024-01-30T01:51:31;12.02;;;7.00;;
38725;SDS011;24474;48.906;8.808;2024-01-30T01:53:58;13.20;;;7.45;;
38725;SDS011;24474;48.906;8.808;2024-01-30T01:56:27;11.80;;;6.38;;
38725;SDS011;24474;48.906;8.808;2024-01-30T01:58:54;11.30;;;6.82;;
38725;SDS011;24474;48.906;8.808;2024-01-30T02:01:20;12.13;;;6.63;;
38725;SDS011;24474;48.906;8.808;2024-01-30T02:03:47;14.07;;;7.63;;
38725;SDS011;24474;48.906;8.808;2024-01-30T02:06:13;11.77;;;6.95;;
38725;SDS011;24474;48.906;8.808;2024-01-30T02:08:41;10.50;;;6.18;;
38725;SDS011;24474;48.906;8.808;2024-01-30T02:11:06;13.13;;;6.80;;
38725;SDS011;24474;48.906;8.808;2024-01-30T02:13:32;12.98;;;7.68;;
38725;SDS011;24474;48.906;8.808;2024-01-30T02:15:58;10.98;;;6.60;;
38725;SDS011;24474;48.906;8.808;2024-01-30T02:18:23;9.80;;;6.25;;
38725;SDS011;24474;48.906;8.808;2024-01-30T02:20:50;9.98;;;5.90;;
38725;SDS011;24474;48.906;8.808;2024-01-30T02:23:18;10.02;;;5.18;;
38725;SDS011;24474;48.906;8.808;2024-01-30T02:25:45;8.48;;;4.63;;
38725;SDS011;24474;48.906;8.808;2024-01-30T02:28:14;7.40;;;4.10;;
38725;SDS011;24474;48.906;8.808;2024-01-30T02:30:42;5.15;;;3.45;;
38725;SDS011;24474;48.906;8.808;2024-01-30T02:33:08;6.18;;;3.67;;
38725;SDS011;24474;48.906;8.808;2024-01-30T02:35:34;8.70;;;3.58;;
38725;SDS011;24474;48.906;8.808;2024-01-30T02:38:00;5.45;;;3.28;;
38725;SDS011;24474;48.906;8.808;2024-01-30T02:40:26;5.65;;;3.15;;
38725;SDS011;24474;48.906;8.808;2024-01-30T02:42:52;4.53;;;3.15;;
38725;SDS011;24474;48.906;8.808;2024-01-30T02:45:17;4.60;;;2.80;;
38725;SDS011;24474;48.906;8.808;2024-01-30T02:47:43;5.10;;;2.90;;
38725;SDS011;24474;48.906;8.808;2024-01-30T02:50:09;5.53;;;3.00;;
38725;SDS011;24474;48.906;8.808;2024-01-30T02:52:35;5.50;;;2.70;;
38725;SDS011;24474;48.906;8.808;2024-01-30T02:55:01;5.75;;;3.13;;
38725;SDS011;24474;48.906;8.808;2024-01-30T02:57:27;4.20;;;2.65;;
38725;SDS011;24474;48.906;8.808;2024-01-30T02:59:53;4.07;;;2.40;;
38725;SDS011;24474;48.906;8.808;2024-01-30T03:02:19;4.95;;;2.72;;
38725;SDS011;24474;48.906;8.808;2024-01-30T03:04:45;5.07;;;2.58;;
38725;SDS011;24474;48.906;8.808;2024-01-30T03:07:11;6.07;;;3.13;;
38725;SDS011;24474;48.906;8.808;2024-01-30T03:09:36;6.13;;;3.33;;
38725;SDS011;24474;48.906;8.808;2024-01-30T03:12:02;4.22;;;2.97;;
38725;SDS011;24474;48.906;8.808;2024-01-30T03:14:30;6.60;;;3.17;;
38725;SDS011;24474;48.906;8.808;2024-01-30T03:16:56;4.47;;;2.70;;
38725;SDS011;24474;48.906;8.808;2024-01-30T03:19:22;7.45;;;2.75;;
38725;SDS011;24474;48.906;8.808;2024-01-30T03:21:48;5.10;;;3.05;;
38725;SDS011;24474;48.906;8.808;2024-01-30T03:24:14;5.32;;;3.20;;
38725;SDS011;24474;48.906;8.808;2024-01-30T03:26:40;5.07;;;3.13;;
38725;SDS011;24474;48.906;8.808;2024-01-30T03:29:05;4.70;;;3.25;;
38725;SDS011;24474;48.906;8.808;2024-01-30T03:31:31;5.63;;;3.35;;
38725;SDS011;24474;48.906;8.808;2024-01-30T03:33:57;6.47;;;3.75;;
38725;SDS011;24474;48.906;8.808;2024-01-30T03:36:23;7.20;;;4.03;;
38725;SDS011;24474;48.906;8.808;2024-01-30T03:38:48;5.75;;;3.55;;
38725;SDS011;24474;48.906;8.808;2024-01-30T03:41:14;7.07;;;3.45;;
38725;SDS011;24474;48.906;8.808;2024-01-30T03:43:40;5.80;;;3.20;;
38725;SDS011;24474;48.906;8.808;2024-01-30T03:46:06;6.15;;;3.60;;
38725;SDS011;24474;48.906;8.808;2024-01-30T03:48:31;6.03;;;3.67;;
38725;SDS011;24474;48.906;8.808;2024-01-30T03:50:57;6.28;;;3.80;;
38725;SDS011;24474;48.906;8.808;2024-01-30T03:53:23;6.38;;;4.10;;
38725;SDS011;24474;48.906;8.808;2024-01-30T03:55:49;5.85;;;3.50;;
38725;SDS011;24474;48.906;8.808;2024-01-30T03:58:14;5.72;;;3.17;;
38725;SDS011;24474;48.906;8.808;2024-01-30T04:00:40;6.30;;;3.40;;
38725;SDS011;24474;48.906;8.808;2024-01-30T04:03:06;8.02;;;3.58;;
38725;SDS011;24474;48.906;8.808;2024-01-30T04:05:32;5.15;;;3.05;;
38725;SDS011;24474;48.906;8.808;2024-01-30T04:08:00;5.90;;;3.60;;
38725;SDS011;24474;48.906;8.808;2024-01-30T04:10:25;6.10;;;3.53;;
38725;SDS011;24474;48.906;8.808;2024-01-30T04:12:51;5.70;;;2.90;;
38725;SDS011;24474;48.906;8.808;2024-01-30T04:15:17;6.03;;;3.20;;
38725;SDS011;24474;48.906;8.808;2024-01-30T04:17:43;4.88;;;3.00;;
38725;SDS011;24474;48.906;8.808;2024-01-30T04:20:13;5.22;;;3.58;;
38725;SDS011;24474;48.906;8.808;2024-01-30T04:22:41;7.18;;;4.15;;
38725;SDS011;24474;48.906;8.808;2024-01-30T04:25:09;6.05;;;3.80;;
38725;SDS011;24474;48.906;8.808;2024-01-30T04:27:36;7.18;;;3.85;;
38725;SDS011;24474;48.906;8.808;2024-01-30T04:30:01;6.75;;;3.95;;
38725;SDS011;24474;48.906;8.808;2024-01-30T04:32:27;6.82;;;3.95;;
38725;SDS011;24474;48.906;8.808;2024-01-30T04:34:53;5.82;;;3.70;;
38725;SDS011;24474;48.906;8.808;2024-01-30T04:37:18;6.72;;;3.65;;
38725;SDS011;24474;48.906;8.808;2024-01-30T04:39:44;7.82;;;4.05;;
38725;SDS011;24474;48.906;8.808;2024-01-30T04:42:09;5.90;;;3.60;;
38725;SDS011;24474;48.906;8.808;2024-01-30T04:44:35;6.05;;;3.78;;
38725;SDS011;24474;48.906;8.808;2024-01-30T04:47:00;5.68;;;3.50;;
38725;SDS011;24474;48.906;8.808;2024-01-30T04:49:26;5.63;;;3.60;;
38725;SDS011;24474;48.906;8.808;2024-01-30T04:51:54;7.35;;;4.57;;
38725;SDS011;24474;48.906;8.808;2024-01-30T04:54:20;10.30;;;5.65;;
38725;SDS011;24474;48.906;8.808;2024-01-30T04:56:46;12.50;;;8.77;;
38725;SDS011;24474;48.906;8.808;2024-01-30T04:59:11;11.15;;;8.50;;
38725;SDS011;24474;48.906;8.808;2024-01-30T05:01:37;10.30;;;7.60;;
38725;SDS011;24474;48.906;8.808;2024-01-30T05:04:03;11.25;;;7.07;;
38725;SDS011;24474;48.906;8.808;2024-01-30T05:06:29;10.27;;;7.30;;
38725;SDS011;24474;48.906;8.808;2024-01-30T05:08:54;8.43;;;6.28;;
38725;SDS011;24474;48.906;8.808;2024-01-30T05:11:20;7.05;;;5.10;;
38725;SDS011;24474;48.906;8.808;2024-01-30T05:13:46;6.32;;;4.30;;
38725;SDS011;24474;48.906;8.808;2024-01-30T05:16:12;7.97;;;4.63;;
38725;SDS011;24474;48.906;8.808;2024-01-30T05:18:38;9.07;;;5.85;;
38725;SDS011;24474;48.906;8.808;2024-01-30T05:21:05;8.35;;;4.72;;
38725;SDS011;24474;48.906;8.808;2024-01-30T05:23:30;6.75;;;4.47;;
38725;SDS011;24474;48.906;8.808;2024-01-30T05:25:56;8.30;;;5.18;;
38725;SDS011;24474;48.906;8.808;2024-01-30T05:28:22;7.78;;;5.30;;
38725;SDS011;24474;48.906;8.808;2024-01-30T05:30:47;5.43;;;3.33;;
38725;SDS011;24474;48.906;8.808;2024-01-30T05:33:13;5.57;;;3.10;;
38725;SDS011;24474;48.906;8.808;2024-01-30T05:35:39;5.15;;;3.40;;
38725;SDS011;24474;48.906;8.808;2024-01-30T05:38:04;8.07;;;3.55;;
38725;SDS011;24474;48.906;8.808;2024-01-30T05:40:30;6.50;;;4.10;;
38725;SDS011;24474;48.906;8.808;2024-01-30T05:42:56;7.50;;;4.53;;
38725;SDS011;24474;48.906;8.808;2024-01-30T05:45:25;7.13;;;4.70;;
38725;SDS011;24474;48.906;8.808;2024-01-30T05:47:51;6.80;;;4.35;;
38725;SDS011;24474;48.906;8.808;2024-01-30T05:50:18;8.75;;;4.00;;
38725;SDS011;24474;48.906;8.808;2024-01-30T05:52:44;7.43;;;4.00;;
38725;SDS011;24474;48.906;8.808;2024-01-30T05:55:10;7.10;;;3.78;;
38725;SDS011;24474;48.906;8.808;2024-01-30T05:57:36;5.57;;;3.22;;
38725;SDS011;24474;48.906;8.808;2024-01-30T06:00:03;6.20;;;3.28;;
38725;SDS011;24474;48.906;8.808;2024-01-30T06:02:32;6.30;;;2.97;;
38725;SDS011;24474;48.906;8.808;2024-01-30T06:05:01;5.35;;;2.80;;
38725;SDS011;24474;48.906;8.808;2024-01-30T06:07:26;4.22;;;2.90;;
38725;SDS011;24474;48.906;8.808;2024-01-30T06:09:52;4.97;;;3.03;;
38725;SDS011;24474;48.906;8.808;2024-01-30T06:12:18;4.50;;;3.08;;
38725;SDS011;24474;48.906;8.808;2024-01-30T06:14:46;5.38;;;3.45;;
38725;SDS011;24474;48.906;8.808;2024-01-30T06:17:12;5.53;;;3.42;;
38725;SDS011;24474;48.906;8.808;2024-01-30T06:19:38;5.75;;;3.65;;
38725;SDS011;24474;48.906;8.808;2024-01-30T06:22:04;6.45;;;3.58;;
38725;SDS011;24474;48.906;8.808;2024-01-30T06:24:30;7.75;;;4.50;;
38725;SDS011;24474;48.906;8.808;2024-01-30T06:26:55;8.38;;;5.32;;
38725;SDS011;24474;48.906;8.808;2024-01-30T06:29:23;6.47;;;4.75;;
38725;SDS011;24474;48.906;8.808;2024-01-30T06:31:51;6.43;;;4.50;;
38725;SDS011;24474;48.906;8.808;2024-01-30T06:34:17;7.22;;;4.45;;
38725;SDS011;24474;48.906;8.808;2024-01-30T06:36:43;7.55;;;3.78;;
38725;SDS011;24474;48.906;8.808;2024-01-30T06:39:08;5.70;;;3.33;;
38725;SDS011;24474;48.906;8.808;2024-01-30T06:41:34;4.70;;;3.10;;
38725;SDS011;24474;48.906;8.808;2024-01-30T06:44:01;4.70;;;2.90;;
38725;SDS011;24474;48.906;8.808;2024-01-30T06:46:27;4.65;;;2.97;;
38725;SDS011;24474;48.906;8.808;2024-01-30T06:48:53;6.18;;;3.17;;
38725;SDS011;24474;48.906;8.808;2024-01-30T06:51:19;4.65;;;2.75;;
38725;SDS011;24474;48.906;8.808;2024-01-30T06:53:44;3.88;;;2.78;;
38725;SDS011;24474;48.906;8.808;2024-01-30T06:56:10;5.53;;;3.50;;
38725;SDS011;24474;48.906;8.808;2024-01-30T06:58:36;8.55;;;3.75;;
38725;SDS011;24474;48.906;8.808;2024-01-30T07:01:01;5.53;;;3.78;;
38725;SDS011;24474;48.906;8.808;2024-01-30T07:03:27;6.28;;;3.67;;
38725;SDS011;24474;48.906;8.808;2024-01-30T07:05:53;5.90;;;3.75;;
38725;SDS011;24474;48.906;8.808;2024-01-30T07:08:19;6.45;;;3.60;;
38725;SDS011;24474;48.906;8.808;2024-01-30T07:10:44;8.20;;;3.80;;
38725;SDS011;24474;48.906;8.808;2024-01-30T07:13:13;8.75;;;3.67;;
38725;SDS011;24474;48.906;8.808;2024-01-30T07:15:41;9.18;;;5.00;;
38725;SDS011;24474;48.906;8.808;2024-01-30T07:18:07;9.02;;;5.05;;
38725;SDS011;24474;48.906;8.808;2024-01-30T07:20:33;9.32;;;4.50;;
38725;SDS011;24474;48.906;8.808;2024-01-30T07:22:58;8.98;;;4.57;;
38725;SDS011;24474;48.906;8.808;2024-01-30T07:25:24;17.23;;;8.80;;
38725;SDS011;24474;48.906;8.808;2024-01-30T07:27:53;30.10;;;13.75;;
38725;SDS011;24474;48.906;8.808;2024-01-30T07:30:19;26.50;;;14.10;;
38725;SDS011;24474;48.906;8.808;2024-01-30T07:32:46;26.58;;;12.77;;
38725;SDS011;24474;48.906;8.808;2024-01-30T07:35:12;23.33;;;11.70;;
38725;SDS011;24474;48.906;8.808;2024-01-30T07:37:38;21.38;;;11.38;;
38725;SDS011;24474;48.906;8.808;2024-01-30T07:40:04;12.45;;;6.75;;
38725;SDS011;24474;48.906;8.808;2024-01-30T07:42:31;13.35;;;7.38;;
38725;SDS011;24474;48.906;8.808;2024-01-30T07:44:57;14.70;;;7.13;;
38725;SDS011;24474;48.906;8.808;2024-01-30T07:47:23;13.23;;;6.47;;
38725;SDS011;24474;48.906;8.808;2024-01-30T07:49:49;8.45;;;4.28;;
38725;SDS011;24474;48.906;8.808;2024-01-30T07:52:16;8.68;;;4.80;;
38725;SDS011;24474;48.906;8.808;2024-01-30T07:54:43;6.90;;;4.05;;
38725;SDS011;24474;48.906;8.808;2024-01-30T07:57:12;12.25;;;7.70;;
38725;SDS011;24474;48.906;8.808;2024-01-30T07:59:37;15.75;;;9.27;;
38725;SDS011;24474;48.906;8.808;2024-01-30T08:02:03;13.82;;;8.65;;
38725;SDS011;24474;48.906;8.808;2024-01-30T08:04:29;13.80;;;7.93;;
38725;SDS011;24474;48.906;8.808;2024-01-30T08:06:59;14.82;;;8.90;;
38725;SDS011;24474;48.906;8.808;2024-01-30T08:09:24;13.45;;;8.65;;
38725;SDS011;24474;48.906;8.808;2024-01-30T08:11:50;14.45;;;9.02;;
38725;SDS011;24474;48.906;8.808;2024-01-30T08:14:16;16.73;;;10.05;;
38725;SDS011;24474;48.906;8.808;2024-01-30T08:16:42;14.73;;;9.35;;
38725;SDS011;24474;48.906;8.808;2024-01-30T08:19:07;18.00;;;9.82;;
38725;SDS011;24474;48.906;8.808;2024-01-30T08:21:35;10.40;;;7.07;;
38725;SDS011;24474;48.906;8.808;2024-01-30T08:24:05;10.15;;;6.28;;
38725;SDS011;24474;48.906;8.808;2024-01-30T08:26:32;18.20;;;10.32;;
38725;SDS011;24474;48.906;8.808;2024-01-30T08:28:58;23.48;;;13.07;;
38725;SDS011;24474;48.906;8.808;2024-01-30T08:31:23;22.35;;;13.18;;
38725;SDS011;24474;48.906;8.808;2024-01-30T08:33:51;23.90;;;12.60;;
38725;SDS011;24474;48.906;8.808;2024-01-30T08:36:17;22.92;;;12.88;;
38725;SDS011;24474;48.906;8.808;2024-01-30T08:38:43;23.63;;;14.23;;
38725;SDS011;24474;48.906;8.808;2024-01-30T08:41:08;23.25;;;12.30;;
38725;SDS011;24474;48.906;8.808;2024-01-30T08:43:35;18.25;;;11.55;;
38725;SDS011;24474;48.906;8.808;2024-01-30T08:46:02;14.75;;;10.43;;
38725;SDS011;24474;48.906;8.808;2024-01-30T08:48:28;15.38;;;10.98;;
38725;SDS011;24474;48.906;8.808;2024-01-30T08:50:54;17.35;;;9.75;;
38725;SDS011;24474;48.906;8.808;2024-01-30T08:53:20;16.23;;;9.50;;
38725;SDS011;24474;48.906;8.808;2024-01-30T08:55:46;16.67;;;9.75;;
38725;SDS011;24474;48.906;8.808;2024-01-30T08:58:11;13.93;;;8.90;;
38725;SDS011;24474;48.906;8.808;2024-01-30T09:00:37;13.63;;;8.45;;
38725;SDS011;24474;48.906;8.808;2024-01-30T09:03:03;14.48;;;8.65;;
38725;SDS011;24474;48.906;8.808;2024-01-30T09:05:30;12.73;;;8.10;;
38725;SDS011;24474;48.906;8.808;2024-01-30T09:07:57;12.40;;;8.30;;
38725;SDS011;24474;48.906;8.808;2024-01-30T09:10:22;11.35;;;7.35;;
38725;SDS011;24474;48.906;8.808;2024-01-30T09:12:48;13.50;;;8.15;;
38725;SDS011;24474;48.906;8.808;2024-01-30T09:15:14;11.30;;;7.53;;
38725;SDS011;24474;48.906;8.808;2024-01-30T09:17:41;12.30;;;7.88;;
38725;SDS011;24474;48.906;8.808;2024-01-30T09:20:08;12.55;;;7.60;;
38725;SDS011;24474;48.906;8.808;2024-01-30T09:22:34;12.23;;;7.50;;
38725;SDS011;24474;48.906;8.808;2024-01-30T09:25:01;8.95;;;6.18;;
38725;SDS011;24474;48.906;8.808;2024-01-30T09:27:28;10.05;;;5.43;;
38725;SDS011;24474;48.906;8.808;2024-01-30T09:29:55;7.85;;;5.85;;
38725;SDS011;24474;48.906;8.808;2024-01-30T09:32:21;9.45;;;5.25;;
38725;SDS011;24474;48.906;8.808;2024-01-30T09:34:47;9.90;;;5.63;;
38725;SDS011;24474;48.906;8.808;2024-01-30T09:37:14;8.45;;;5.50;;
38725;SDS011;24474;48.906;8.808;2024-01-30T09:39:42;9.82;;;5.80;;
38725;SDS011;24474;48.906;8.808;2024-01-30T09:42:28;9.13;;;5.53;;
38725;SDS011;24474;48.906;8.808;2024-01-30T09:45:05;9.48;;;5.38;;
38725;SDS011;24474;48.906;8.808;2024-01-30T09:47:39;11.25;;;6.07;;
38725;SDS011;24474;48.906;8.808;2024-01-30T09:50:12;8.98;;;5.95;;
38725;SDS011;24474;48.906;8.808;2024-01-30T09:52:39;11.02;;;5.65;;
38725;SDS011;24474;48.906;8.808;2024-01-30T09:55:06;9.43;;;5.65;;
38725;SDS011;24474;48.906;8.808;2024-01-30T09:57:34;8.20;;;5.53;;
38725;SDS011;24474;48.906;8.808;2024-01-30T10:00:02;10.85;;;6.47;;
38725;SDS011;24474;48.906;8.808;2024-01-30T10:02:35;9.85;;;5.70;;
38725;SDS011;24474;48.906;8.808;2024-01-30T10:05:01;10.82;;;6.18;;
38725;SDS011;24474;48.906;8.808;2024-01-30T10:07:29;11.50;;;5.82;;
38725;SDS011;24474;48.906;8.808;2024-01-30T10:10:00;10.43;;;6.20;;
38725;SDS011;24474;48.906;8.808;2024-01-30T10:12:26;9.55;;;6.30;;
38725;SDS011;24474;48.906;8.808;2024-01-30T10:14:55;8.75;;;5.68;;
38725;SDS011;24474;48.906;8.808;2024-01-30T10:17:24;7.45;;;5.18;;
38725;SDS011;24474;48.906;8.808;2024-01-30T10:19:52;13.27;;;5.40;;
38725;SDS011;24474;48.906;8.808;2024-01-30T10:22:38;8.55;;;4.78;;
38725;SDS011;24474;48.906;8.808;2024-01-30T10:25:09;9.50;;;5.20;;
38725;SDS011;24474;48.906;8.808;2024-01-30T10:27:35;10.02;;;6.20;;
38725;SDS011;24474;48.906;8.808;2024-01-30T10:30:07;7.82;;;5.13;;
38725;SDS011;24474;48.906;8.808;2024-01-30T10:32:33;10.73;;;6.68;;
38725;SDS011;24474;48.906;8.808;2024-01-30T10:34:59;14.35;;;7.45;;
38725;SDS011;24474;48.906;8.808;2024-01-30T10:37:25;16.33;;;8.70;;
38725;SDS011;24474;48.906;8.808;2024-01-30T10:39:55;22.15;;;11.30;;
38725;SDS011;24474;48.906;8.808;2024-01-30T10:42:27;17.40;;;10.00;;
38725;SDS011;24474;48.906;8.808;2024-01-30T10:45:04;15.02;;;8.63;;
38725;SDS011;24474;48.906;8.808;2024-01-30T10:47:39;13.13;;;7.43;;
38725;SDS011;24474;48.906;8.808;2024-01-30T10:50:05;10.27;;;7.30;;
38725;SDS011;24474;48.906;8.808;2024-01-30T10:52:35;16.75;;;8.65;;
38725;SDS011;24474;48.906;8.808;2024-01-30T10:55:01;14.68;;;9.68;;
38725;SDS011;24474;48.906;8.808;2024-01-30T10:57:31;17.15;;;9.93;;
38725;SDS011;24474;48.906;8.808;2024-01-30T10:59:59;20.00;;;11.05;;
38725;SDS011;24474;48.906;8.808;2024-01-30T11:02:31;17.40;;;10.73;;
38725;SDS011;24474;48.906;8.808;2024-01-30T11:04:59;15.15;;;10.23;;
38725;SDS011;24474;48.906;8.808;2024-01-30T11:07:28;14.85;;;9.93;;
38725;SDS011;24474;48.906;8.808;2024-01-30T11:12:26;20.27;;;11.90;;
38725;SDS011;24474;48.906;8.808;2024-01-30T11:15:02;22.08;;;13.02;;
38725;SDS011;24474;48.906;8.808;2024-01-30T11:17:39;25.92;;;15.48;;
38725;SDS011;24474;48.906;8.808;2024-01-30T11:20:20;20.70;;;12.32;;
38725;SDS011;24474;48.906;8.808;2024-01-30T11:25:46;13.40;;;8.05;;
38725;SDS011;24474;48.906;8.808;2024-01-30T11:28:14;12.98;;;8.60;;
38725;SDS011;24474;48.906;8.808;2024-01-30T11:30:46;11.85;;;8.00;;
38725;SDS011;24474;48.906;8.808;2024-01-30T11:33:37;17.33;;;8.77;;
38725;SDS011;24474;48.906;8.808;2024-01-30T11:36:04;12.48;;;7.72;;
38725;SDS011;24474;48.906;8.808;2024-01-30T11:38:35;11.57;;;8.07;;
38725;SDS011;24474;48.906;8.808;2024-01-30T11:41:01;13.20;;;8.27;;
38725;SDS011;24474;48.906;8.808;2024-01-30T11:43:28;12.13;;;8.20;;
38725;SDS011;24474;48.906;8.808;2024-01-30T11:45:54;14.05;;;7.47;;
38725;SDS011;24474;48.906;8.808;2024-01-30T11:48:21;12.73;;;6.93;;
38725;SDS011;24474;48.906;8.808;2024-01-30T11:50:48;13.50;;;7.10;;
38725;SDS011;24474;48.906;8.808;2024-01-30T11:53:18;9.73;;;6.13;;
38725;SDS011;24474;48.906;8.808;2024-01-30T11:55:49;12.23;;;6.72;;
38725;SDS011;24474;48.906;8.808;2024-01-30T11:58:18;8.90;;;6.47;;
38725;SDS011;24474;48.906;8.808;2024-01-30T12:00:52;11.77;;;6.68;;
38725;SDS011;24474;48.906;8.808;2024-01-30T12:03:19;11.18;;;6.65;;
38725;SDS011;24474;48.906;8.808;2024-01-30T12:05:45;11.55;;;6.60;;
38725;SDS011;24474;48.906;8.808;2024-01-30T12:08:14;10.48;;;6.25;;
38725;SDS011;24474;48.906;8.808;2024-01-30T12:10:44;10.35;;;6.55;;
38725;SDS011;24474;48.906;8.808;2024-01-30T12:13:09;13.30;;;6.65;;
38725;SDS011;24474;48.906;8.808;2024-01-30T12:15:36;7.90;;;6.00;;
38725;SDS011;24474;48.906;8.808;2024-01-30T12:18:05;9.35;;;5.90;;
38725;SDS011;24474;48.906;8.808;2024-01-30T12:20:36;14.15;;;6.65;;
38725;SDS011;24474;48.906;8.808;2024-01-30T12:23:03;12.07;;;7.40;;
38725;SDS011;24474;48.906;8.808;2024-01-30T12:25:29;12.13;;;6.72;;
38725;SDS011;24474;48.906;8.808;2024-01-30T12:27:56;13.45;;;7.45;;
38725;SDS011;24474;48.906;8.808;2024-01-30T12:30:23;14.70;;;7.43;;
38725;SDS011;24474;48.906;8.808;2024-01-30T12:32:49;12.13;;;7.03;;
38725;SDS011;24474;48.906;8.808;2024-01-30T12:35:20;17.95;;;7.70;;
38725;SDS011;24474;48.906;8.808;2024-01-30T12:37:48;10.15;;;5.43;;
38725;SDS011;24474;48.906;8.808;2024-01-30T12:40:15;11.32;;;5.15;;
38725;SDS011;24474;48.906;8.808;2024-01-30T12:42:42;9.27;;;5.22;;
38725;SDS011;24474;48.906;8.808;2024-01-30T12:45:08;9.32;;;5.15;;
38725;SDS011;24474;48.906;8.808;2024-01-30T12:47:34;9.25;;;5.00;;
38725;SDS011;24474;48.906;8.808;2024-01-30T12:50:01;9.50;;;5.03;;
38725;SDS011;24474;48.906;8.808;2024-01-30T12:52:27;9.23;;;4.97;;
38725;SDS011;24474;48.906;8.808;2024-01-30T12:54:54;9.50;;;4.50;;
38725;SDS011;24474;48.906;8.808;2024-01-30T12:57:21;7.90;;;4.57;;
38725;SDS011;24474;48.906;8.808;2024-01-30T12:59:47;8.50;;;4.63;;
38725;SDS011;24474;48.906;8.808;2024-01-30T13:02:13;9.05;;;4.25;;
38725;SDS011;24474;48.906;8.808;2024-01-30T13:04:40;9.10;;;3.78;;
38725;SDS011;24474;48.906;8.808;2024-01-30T13:07:10;7.88;;;4.03;;
38725;SDS011;24474;48.906;8.808;2024-01-30T13:09:52;7.03;;;3.85;;
38725;SDS011;24474;48.906;8.808;2024-01-30T13:12:18;5.75;;;3.13;;
38725;SDS011;24474;48.906;8.808;2024-01-30T13:14:44;8.52;;;3.60;;
38725;SDS011;24474;48.906;8.808;2024-01-30T13:17:10;6.25;;;3.13;;
38725;SDS011;24474;48.906;8.808;2024-01-30T13:19:35;6.13;;;3.03;;
38725;SDS011;24474;48.906;8.808;2024-01-30T13:22:01;5.65;;;2.97;;
38725;SDS011;24474;48.906;8.808;2024-01-30T13:24:27;10.60;;;3.33;;
38725;SDS011;24474;48.906;8.808;2024-01-30T13:26:54;7.53;;;3.97;;
38725;SDS011;24474;48.906;8.808;2024-01-30T13:29:19;9.55;;;4.15;;
38725;SDS011;24474;48.906;8.808;2024-01-30T13:31:46;9.02;;;3.80;;
38725;SDS011;24474;48.906;8.808;2024-01-30T13:34:13;6.35;;;3.15;;
38725;SDS011;24474;48.906;8.808;2024-01-30T13:36:39;5.03;;;3.20;;
38725;SDS011;24474;48.906;8.808;2024-01-30T13:39:05;5.35;;;3.28;;
38725;SDS011;24474;48.906;8.808;2024-01-30T13:41:36;5.30;;;3.50;;
38725;SDS011;24474;48.906;8.808;2024-01-30T13:44:03;8.50;;;4.00;;
38725;SDS011;24474;48.906;8.808;2024-01-30T13:46:29;8.18;;;3.80;;
38725;SDS011;24474;48.906;8.808;2024-01-30T13:48:56;6.32;;;3.80;;
38725;SDS011;24474;48.906;8.808;2024-01-30T13:51:22;9.02;;;3.72;;
38725;SDS011;24474;48.906;8.808;2024-01-30T13:53:47;7.53;;;3.63;;
38725;SDS011;24474;48.906;8.808;2024-01-30T13:56:15;6.90;;;3.85;;
38725;SDS011;24474;48.906;8.808;2024-01-30T13:58:42;9.18;;;3.80;;
38725;SDS011;24474;48.906;8.808;2024-01-30T14:01:08;10.10;;;4.30;;
38725;SDS011;24474;48.906;8.808;2024-01-30T14:03:35;8.15;;;3.60;;
38725;SDS011;24474;48.906;8.808;2024-01-30T14:06:01;11.75;;;3.95;;
38725;SDS011;24474;48.906;8.808;2024-01-30T14:08:27;6.45;;;3.58;;
38725;SDS011;24474;48.906;8.808;2024-01-30T14:10:54;7.57;;;4.55;;
38725;SDS011;24474;48.906;8.808;2024-01-30T14:13:23;10.70;;;4.68;;
38725;SDS011;24474;48.906;8.808;2024-01-30T14:15:53;8.77;;;4.38;;
38725;SDS011;24474;48.906;8.808;2024-01-30T14:18:20;9.73;;;4.50;;
38725;SDS011;24474;48.906;8.808;2024-01-30T14:20:47;6.63;;;3.17;;
38725;SDS011;24474;48.906;8.808;2024-01-30T14:23:14;5.97;;;2.90;;
38725;SDS011;24474;48.906;8.808;2024-01-30T14:25:45;4.85;;;3.10;;
38725;SDS011;24474;48.906;8.808;2024-01-30T14:28:10;9.23;;;3.90;;
38725;SDS011;24474;48.906;8.808;2024-01-30T14:30:37;8.18;;;3.80;;
38725;SDS011;24474;48.906;8.808;2024-01-30T14:33:04;7.47;;;4.28;;
38725;SDS011;24474;48.906;8.808;2024-01-30T14:35:32;9.00;;;4.38;;
38725;SDS011;24474;48.906;8.808;2024-01-30T14:37:59;9.32;;;4.65;;
38725;SDS011;24474;48.906;8.808;2024-01-30T14:40:26;10.38;;;4.70;;
38725;SDS011;24474;48.906;8.808;2024-01-30T14:42:52;7.60;;;4.43;;
38725;SDS011;24474;48.906;8.808;2024-01-30T14:45:17;7.40;;;4.25;;